sensor_id;sensor_type;location;lat;lon;timestamp;temperature;humidity
13642;DHT22;6894;52.196;9.904;2023-05-29T00:01:41;14.00;1.00
13642;DHT22;6894;52.196;9.904;2023-05-29T00:04:08;14.10;1.00
13642;DHT22;6894;52.196;9.904;2023-05-29T00:06:36;13.90;1.00
13642;DHT22;6894;52.196;9.904;2023-05-29T00:09:02;13.90;1.00
13642;DHT22;6894;52.196;9.904;2023-05-29T00:11:30;13.90;1.00
13642;DHT22;6894;52.196;9.904;2023-05-29T00:13:57;13.90;1.00
13642;DHT22;6894;52.196;9.904;2023-05-29T00:16:24;13.80;1.00
13642;DHT22;6894;52.196;9.904;2023-05-29T00:18:51;13.80;1.00
13642;DHT22;6894;52.196;9.904;2023-05-29T00:21:19;13.70;1.00
13642;DHT22;6894;52.196;9.904;2023-05-29T00:23:47;13.60;25.20
13642;DHT22;6894;52.196;9.904;2023-05-29T00:26:13;13.60;68.70
13642;DHT22;6894;52.196;9.904;2023-05-29T00:28:43;13.50;99.90
13642;DHT22;6894;52.196;9.904;2023-05-29T00:31:10;13.40;99.90
13642;DHT22;6894;52.196;9.904;2023-05-29T00:33:37;13.30;99.90
13642;DHT22;6894;52.196;9.904;2023-05-29T00:36:04;13.30;99.90
13642;DHT22;6894;52.196;9.904;2023-05-29T00:38:32;13.20;99.90
13642;DHT22;6894;52.196;9.904;2023-05-29T00:40:58;13.20;99.90
13642;DHT22;6894;52.196;9.904;2023-05-29T00:43:25;13.10;99.90
13642;DHT22;6894;52.196;9.904;2023-05-29T00:45:54;13.10;99.90
13642;DHT22;6894;52.196;9.904;2023-05-29T00:48:20;13.00;99.90
13642;DHT22;6894;52.196;9.904;2023-05-29T00:50:47;12.90;99.90
13642;DHT22;6894;52.196;9.904;2023-05-29T00:53:15;12.90;99.90
13642;DHT22;6894;52.196;9.904;2023-05-29T00:55:42;12.90;99.90
13642;DHT22;6894;52.196;9.904;2023-05-29T00:58:08;12.80;99.90
13642;DHT22;6894;52.196;9.904;2023-05-29T01:00:35;12.80;99.90
13642;DHT22;6894;52.196;9.904;2023-05-29T01:03:06;12.70;99.90
13642;DHT22;6894;52.196;9.904;2023-05-29T01:05:34;12.60;99.90
13642;DHT22;6894;52.196;9.904;2023-05-29T01:08:02;12.60;99.90
13642;DHT22;6894;52.196;9.904;2023-05-29T01:10:28;12.60;99.90
13642;DHT22;6894;52.196;9.904;2023-05-29T01:13:00;12.60;99.90
13642;DHT22;6894;52.196;9.904;2023-05-29T01:15:35;12.50;99.90
13642;DHT22;6894;52.196;9.904;2023-05-29T01:21:06;12.50;99.90
13642;DHT22;6894;52.196;9.904;2023-05-29T01:23:52;12.40;99.90
13642;DHT22;6894;52.196;9.904;2023-05-29T01:29:26;12.30;99.90
13642;DHT22;6894;52.196;9.904;2023-05-29T01:31:53;12.30;99.90
13642;DHT22;6894;52.196;9.904;2023-05-29T01:34:20;12.30;99.90
13642;DHT22;6894;52.196;9.904;2023-05-29T01:36:47;12.20;99.90
13642;DHT22;6894;52.196;9.904;2023-05-29T01:39:14;12.10;99.90
13642;DHT22;6894;52.196;9.904;2023-05-29T01:41:43;12.00;99.90
13642;DHT22;6894;52.196;9.904;2023-05-29T01:44:10;12.00;99.90
13642;DHT22;6894;52.196;9.904;2023-05-29T01:46:40;12.00;99.90
13642;DHT22;6894;52.196;9.904;2023-05-29T01:49:08;11.90;99.90
13642;DHT22;6894;52.196;9.904;2023-05-29T01:51:35;12.00;99.90
13642;DHT22;6894;52.196;9.904;2023-05-29T01:54:02;11.90;99.90
13642;DHT22;6894;52.196;9.904;2023-05-29T01:56:31;11.90;99.90
13642;DHT22;6894;52.196;9.904;2023-05-29T01:58:58;11.80;99.90
13642;DHT22;6894;52.196;9.904;2023-05-29T02:01:26;11.80;99.90
13642;DHT22;6894;52.196;9.904;2023-05-29T02:03:54;11.80;99.90
13642;DHT22;6894;52.196;9.904;2023-05-29T02:06:21;11.80;99.90
13642;DHT22;6894;52.196;9.904;2023-05-29T02:08:48;11.70;99.90
13642;DHT22;6894;52.196;9.904;2023-05-29T02:11:14;11.70;99.90
13642;DHT22;6894;52.196;9.904;2023-05-29T02:13:41;11.60;99.90
13642;DHT22;6894;52.196;9.904;2023-05-29T02:16:08;11.60;99.90
13642;DHT22;6894;52.196;9.904;2023-05-29T02:18:35;11.60;99.90
13642;DHT22;6894;52.196;9.904;2023-05-29T02:21:03;11.60;99.90
13642;DHT22;6894;52.196;9.904;2023-05-29T02:23:31;11.50;99.90
13642;DHT22;6894;52.196;9.904;2023-05-29T02:25:58;11.50;99.90
13642;DHT22;6894;52.196;9.904;2023-05-29T02:28:24;11.40;99.90
13642;DHT22;6894;52.196;9.904;2023-05-29T02:30:51;11.40;99.90
13642;DHT22;6894;52.196;9.904;2023-05-29T02:33:18;11.40;99.90
13642;DHT22;6894;52.196;9.904;2023-05-29T02:35:45;11.40;99.90
13642;DHT22;6894;52.196;9.904;2023-05-29T02:38:13;11.40;99.90
13642;DHT22;6894;52.196;9.904;2023-05-29T02:40:40;11.30;99.90
13642;DHT22;6894;52.196;9.904;2023-05-29T02:43:08;11.20;99.90
13642;DHT22;6894;52.196;9.904;2023-05-29T02:45:35;11.20;99.90
13642;DHT22;6894;52.196;9.904;2023-05-29T02:48:02;11.20;99.90
13642;DHT22;6894;52.196;9.904;2023-05-29T02:50:29;11.20;99.90
13642;DHT22;6894;52.196;9.904;2023-05-29T02:52:56;11.20;99.90
13642;DHT22;6894;52.196;9.904;2023-05-29T02:55:24;11.10;99.90
13642;DHT22;6894;52.196;9.904;2023-05-29T02:57:50;11.10;99.90
13642;DHT22;6894;52.196;9.904;2023-05-29T03:00:20;11.10;99.90
13642;DHT22;6894;52.196;9.904;2023-05-29T03:02:47;11.10;99.90
13642;DHT22;6894;52.196;9.904;2023-05-29T03:05:14;11.10;99.90
13642;DHT22;6894;52.196;9.904;2023-05-29T03:07:42;11.10;99.90
13642;DHT22;6894;52.196;9.904;2023-05-29T03:10:09;11.00;99.90
13642;DHT22;6894;52.196;9.904;2023-05-29T03:12:38;11.00;99.90
13642;DHT22;6894;52.196;9.904;2023-05-29T03:15:05;11.00;99.90
13642;DHT22;6894;52.196;9.904;2023-05-29T03:17:33;11.00;99.90
13642;DHT22;6894;52.196;9.904;2023-05-29T03:20:02;11.00;99.90
13642;DHT22;6894;52.196;9.904;2023-05-29T03:22:31;10.90;99.90
13642;DHT22;6894;52.196;9.904;2023-05-29T03:24:58;10.90;99.90
13642;DHT22;6894;52.196;9.904;2023-05-29T03:27:24;10.90;99.90
13642;DHT22;6894;52.196;9.904;2023-05-29T03:29:52;10.90;99.90
13642;DHT22;6894;52.196;9.904;2023-05-29T03:32:20;10.90;99.90
13642;DHT22;6894;52.196;9.904;2023-05-29T03:34:47;10.90;99.90
13642;DHT22;6894;52.196;9.904;2023-05-29T03:37:14;10.90;99.90
13642;DHT22;6894;52.196;9.904;2023-05-29T03:39:41;10.90;99.90
13642;DHT22;6894;52.196;9.904;2023-05-29T03:42:07;10.90;99.90
13642;DHT22;6894;52.196;9.904;2023-05-29T03:44:34;10.90;99.90
13642;DHT22;6894;52.196;9.904;2023-05-29T03:47:02;10.80;99.90
13642;DHT22;6894;52.196;9.904;2023-05-29T03:49:29;10.90;99.90
13642;DHT22;6894;52.196;9.904;2023-05-29T03:51:56;10.90;99.90
13642;DHT22;6894;52.196;9.904;2023-05-29T03:54:23;10.90;99.90
13642;DHT22;6894;52.196;9.904;2023-05-29T03:56:50;10.90;99.90
13642;DHT22;6894;52.196;9.904;2023-05-29T03:59:16;10.90;99.90
13642;DHT22;6894;52.196;9.904;2023-05-29T04:01:43;10.80;93.30
13642;DHT22;6894;52.196;9.904;2023-05-29T04:04:12;10.80;94.90
13642;DHT22;6894;52.196;9.904;2023-05-29T04:06:38;10.80;98.50
13642;DHT22;6894;52.196;9.904;2023-05-29T04:09:05;10.80;99.90
13642;DHT22;6894;52.196;9.904;2023-05-29T04:11:33;10.80;99.90
13642;DHT22;6894;52.196;9.904;2023-05-29T04:14:01;10.80;99.90
13642;DHT22;6894;52.196;9.904;2023-05-29T04:16:28;10.80;99.90
13642;DHT22;6894;52.196;9.904;2023-05-29T04:18:55;10.80;99.90
13642;DHT22;6894;52.196;9.904;2023-05-29T04:21:23;10.80;99.90
13642;DHT22;6894;52.196;9.904;2023-05-29T04:23:52;10.80;99.90
13642;DHT22;6894;52.196;9.904;2023-05-29T04:26:21;10.90;99.90
13642;DHT22;6894;52.196;9.904;2023-05-29T04:28:52;10.90;99.90
13642;DHT22;6894;52.196;9.904;2023-05-29T04:31:22;11.00;99.90
13642;DHT22;6894;52.196;9.904;2023-05-29T04:33:51;11.10;86.60
13642;DHT22;6894;52.196;9.904;2023-05-29T04:36:23;11.10;31.30
13642;DHT22;6894;52.196;9.904;2023-05-29T04:38:51;11.20;1.00
13642;DHT22;6894;52.196;9.904;2023-05-29T04:41:18;11.30;1.00
13642;DHT22;6894;52.196;9.904;2023-05-29T04:43:49;11.30;1.00
13642;DHT22;6894;52.196;9.904;2023-05-29T04:46:16;11.30;1.00
13642;DHT22;6894;52.196;9.904;2023-05-29T04:48:43;11.40;1.00
13642;DHT22;6894;52.196;9.904;2023-05-29T04:51:10;11.40;1.00
13642;DHT22;6894;52.196;9.904;2023-05-29T04:53:38;11.40;1.00
13642;DHT22;6894;52.196;9.904;2023-05-29T04:56:06;11.40;1.00
13642;DHT22;6894;52.196;9.904;2023-05-29T04:58:33;11.40;1.00
13642;DHT22;6894;52.196;9.904;2023-05-29T05:01:00;11.40;1.00
13642;DHT22;6894;52.196;9.904;2023-05-29T05:03:28;11.50;1.00
13642;DHT22;6894;52.196;9.904;2023-05-29T05:05:56;11.50;1.00
13642;DHT22;6894;52.196;9.904;2023-05-29T05:08:23;11.60;1.00
13642;DHT22;6894;52.196;9.904;2023-05-29T05:10:51;11.60;1.00
13642;DHT22;6894;52.196;9.904;2023-05-29T05:13:17;11.60;1.00
13642;DHT22;6894;52.196;9.904;2023-05-29T05:15:44;11.60;1.00
13642;DHT22;6894;52.196;9.904;2023-05-29T05:18:11;11.60;1.00
13642;DHT22;6894;52.196;9.904;2023-05-29T05:20:38;11.50;1.00
13642;DHT22;6894;52.196;9.904;2023-05-29T05:23:05;11.50;1.00
13642;DHT22;6894;52.196;9.904;2023-05-29T05:25:32;11.60;1.00
13642;DHT22;6894;52.196;9.904;2023-05-29T05:28:02;11.70;1.00
13642;DHT22;6894;52.196;9.904;2023-05-29T05:30:29;11.80;1.00
13642;DHT22;6894;52.196;9.904;2023-05-29T05:32:56;11.90;1.00
13642;DHT22;6894;52.196;9.904;2023-05-29T05:35:23;12.20;1.00
13642;DHT22;6894;52.196;9.904;2023-05-29T05:37:50;12.40;1.00
13642;DHT22;6894;52.196;9.904;2023-05-29T05:40:17;12.60;99.90
13642;DHT22;6894;52.196;9.904;2023-05-29T05:42:43;12.90;54.80
13642;DHT22;6894;52.196;9.904;2023-05-29T05:45:11;13.10;99.90
13642;DHT22;6894;52.196;9.904;2023-05-29T05:47:38;13.40;99.90
13642;DHT22;6894;52.196;9.904;2023-05-29T05:50:06;13.70;99.90
13642;DHT22;6894;52.196;9.904;2023-05-29T05:52:32;14.00;99.90
13642;DHT22;6894;52.196;9.904;2023-05-29T05:54:59;14.10;99.90
13642;DHT22;6894;52.196;9.904;2023-05-29T05:57:26;14.30;99.90
13642;DHT22;6894;52.196;9.904;2023-05-29T05:59:53;14.40;99.90
13642;DHT22;6894;52.196;9.904;2023-05-29T06:02:21;14.60;99.90
13642;DHT22;6894;52.196;9.904;2023-05-29T06:04:48;14.60;1.00
13642;DHT22;6894;52.196;9.904;2023-05-29T06:07:15;14.40;1.00
13642;DHT22;6894;52.196;9.904;2023-05-29T06:09:41;14.50;99.90
13642;DHT22;6894;52.196;9.904;2023-05-29T06:12:08;14.70;14.40
13642;DHT22;6894;52.196;9.904;2023-05-29T06:14:35;14.80;1.00
13642;DHT22;6894;52.196;9.904;2023-05-29T06:17:02;14.80;1.00
13642;DHT22;6894;52.196;9.904;2023-05-29T06:19:31;15.00;1.00
13642;DHT22;6894;52.196;9.904;2023-05-29T06:21:57;15.30;1.00
13642;DHT22;6894;52.196;9.904;2023-05-29T06:24:24;15.60;99.90
13642;DHT22;6894;52.196;9.904;2023-05-29T06:26:51;15.80;1.00
13642;DHT22;6894;52.196;9.904;2023-05-29T06:29:17;15.80;1.00
13642;DHT22;6894;52.196;9.904;2023-05-29T06:31:44;16.10;1.00
13642;DHT22;6894;52.196;9.904;2023-05-29T06:34:11;16.10;99.90
13642;DHT22;6894;52.196;9.904;2023-05-29T06:36:39;16.20;1.00
13642;DHT22;6894;52.196;9.904;2023-05-29T06:39:07;16.50;99.90
13642;DHT22;6894;52.196;9.904;2023-05-29T06:41:34;16.70;99.90
13642;DHT22;6894;52.196;9.904;2023-05-29T06:44:00;17.10;1.00
13642;DHT22;6894;52.196;9.904;2023-05-29T06:46:27;17.30;1.00
13642;DHT22;6894;52.196;9.904;2023-05-29T06:48:54;17.40;1.00
13642;DHT22;6894;52.196;9.904;2023-05-29T06:51:21;17.60;1.00
13642;DHT22;6894;52.196;9.904;2023-05-29T06:53:49;17.80;1.00
13642;DHT22;6894;52.196;9.904;2023-05-29T06:56:16;18.00;1.00
13642;DHT22;6894;52.196;9.904;2023-05-29T06:58:42;18.30;1.00
13642;DHT22;6894;52.196;9.904;2023-05-29T07:01:11;18.40;99.90
13642;DHT22;6894;52.196;9.904;2023-05-29T07:03:37;18.50;99.90
13642;DHT22;6894;52.196;9.904;2023-05-29T07:06:05;18.70;99.90
13642;DHT22;6894;52.196;9.904;2023-05-29T07:08:32;18.60;80.50
13642;DHT22;6894;52.196;9.904;2023-05-29T07:11:01;18.30;1.00
13642;DHT22;6894;52.196;9.904;2023-05-29T07:13:28;17.70;99.90
13642;DHT22;6894;52.196;9.904;2023-05-29T07:15:55;17.90;99.90
13642;DHT22;6894;52.196;9.904;2023-05-29T07:18:21;18.00;99.90
13642;DHT22;6894;52.196;9.904;2023-05-29T07:20:48;18.10;99.90
13642;DHT22;6894;52.196;9.904;2023-05-29T07:23:15;18.20;99.90
13642;DHT22;6894;52.196;9.904;2023-05-29T07:25:42;18.40;52.00
13642;DHT22;6894;52.196;9.904;2023-05-29T07:28:10;18.30;99.90
13642;DHT22;6894;52.196;9.904;2023-05-29T07:30:37;18.40;99.90
13642;DHT22;6894;52.196;9.904;2023-05-29T07:33:04;18.60;33.60
13642;DHT22;6894;52.196;9.904;2023-05-29T07:35:31;18.50;1.00
13642;DHT22;6894;52.196;9.904;2023-05-29T07:37:59;18.50;63.10
13642;DHT22;6894;52.196;9.904;2023-05-29T07:40:26;18.90;97.30
13642;DHT22;6894;52.196;9.904;2023-05-29T07:42:53;18.80;1.00
13642;DHT22;6894;52.196;9.904;2023-05-29T07:45:21;19.00;1.00
13642;DHT22;6894;52.196;9.904;2023-05-29T07:47:47;18.90;1.00
13642;DHT22;6894;52.196;9.904;2023-05-29T07:50:14;19.10;1.00
13642;DHT22;6894;52.196;9.904;2023-05-29T07:52:42;19.50;1.00
13642;DHT22;6894;52.196;9.904;2023-05-29T07:55:09;19.90;1.00
13642;DHT22;6894;52.196;9.904;2023-05-29T07:57:35;19.40;1.00
13642;DHT22;6894;52.196;9.904;2023-05-29T08:00:03;19.20;1.00
13642;DHT22;6894;52.196;9.904;2023-05-29T08:02:35;19.30;1.00
13642;DHT22;6894;52.196;9.904;2023-05-29T08:05:03;19.60;1.00
13642;DHT22;6894;52.196;9.904;2023-05-29T08:07:30;19.70;1.00
13642;DHT22;6894;52.196;9.904;2023-05-29T08:09:57;20.00;1.00
13642;DHT22;6894;52.196;9.904;2023-05-29T08:12:24;20.50;1.00
13642;DHT22;6894;52.196;9.904;2023-05-29T08:14:51;21.10;1.00
13642;DHT22;6894;52.196;9.904;2023-05-29T08:17:17;21.30;1.00
13642;DHT22;6894;52.196;9.904;2023-05-29T08:19:46;21.40;1.00
13642;DHT22;6894;52.196;9.904;2023-05-29T08:22:14;21.10;1.00
13642;DHT22;6894;52.196;9.904;2023-05-29T08:24:41;21.00;1.00
13642;DHT22;6894;52.196;9.904;2023-05-29T08:27:08;21.30;1.00
13642;DHT22;6894;52.196;9.904;2023-05-29T08:29:34;21.40;1.00
13642;DHT22;6894;52.196;9.904;2023-05-29T08:32:02;21.80;1.00
13642;DHT22;6894;52.196;9.904;2023-05-29T08:34:29;22.10;1.00
13642;DHT22;6894;52.196;9.904;2023-05-29T08:36:57;22.50;1.00
13642;DHT22;6894;52.196;9.904;2023-05-29T08:39:24;22.30;1.00
13642;DHT22;6894;52.196;9.904;2023-05-29T08:41:56;22.80;1.00
13642;DHT22;6894;52.196;9.904;2023-05-29T08:44:29;23.10;1.00
13642;DHT22;6894;52.196;9.904;2023-05-29T08:46:56;23.20;1.00
13642;DHT22;6894;52.196;9.904;2023-05-29T08:49:25;23.30;1.00
13642;DHT22;6894;52.196;9.904;2023-05-29T08:52:03;22.40;1.00
13642;DHT22;6894;52.196;9.904;2023-05-29T08:54:33;22.40;1.00
13642;DHT22;6894;52.196;9.904;2023-05-29T08:57:00;22.70;1.00
13642;DHT22;6894;52.196;9.904;2023-05-29T08:59:30;23.00;1.00
13642;DHT22;6894;52.196;9.904;2023-05-29T09:01:57;22.70;1.00
13642;DHT22;6894;52.196;9.904;2023-05-29T09:04:23;22.80;1.00
13642;DHT22;6894;52.196;9.904;2023-05-29T09:06:50;22.40;1.00
13642;DHT22;6894;52.196;9.904;2023-05-29T09:09:22;22.50;1.00
13642;DHT22;6894;52.196;9.904;2023-05-29T09:11:49;22.80;1.00
13642;DHT22;6894;52.196;9.904;2023-05-29T09:14:32;23.00;1.00
13642;DHT22;6894;52.196;9.904;2023-05-29T09:17:00;22.70;1.00
13642;DHT22;6894;52.196;9.904;2023-05-29T09:19:27;22.60;1.00
13642;DHT22;6894;52.196;9.904;2023-05-29T09:22:00;22.70;1.00
13642;DHT22;6894;52.196;9.904;2023-05-29T09:24:29;22.60;1.00
13642;DHT22;6894;52.196;9.904;2023-05-29T09:26:56;23.00;1.00
13642;DHT22;6894;52.196;9.904;2023-05-29T09:29:25;23.30;1.00
13642;DHT22;6894;52.196;9.904;2023-05-29T09:31:52;23.40;1.00
13642;DHT22;6894;52.196;9.904;2023-05-29T09:34:18;23.40;1.00
13642;DHT22;6894;52.196;9.904;2023-05-29T09:36:45;23.70;1.00
13642;DHT22;6894;52.196;9.904;2023-05-29T09:39:12;24.20;1.00
13642;DHT22;6894;52.196;9.904;2023-05-29T09:41:43;24.60;1.00
13642;DHT22;6894;52.196;9.904;2023-05-29T09:44:12;24.00;1.00
13642;DHT22;6894;52.196;9.904;2023-05-29T09:46:39;24.00;1.00
13642;DHT22;6894;52.196;9.904;2023-05-29T09:49:11;24.20;1.00
13642;DHT22;6894;52.196;9.904;2023-05-29T09:51:37;24.40;1.00
13642;DHT22;6894;52.196;9.904;2023-05-29T09:54:13;24.20;1.00
13642;DHT22;6894;52.196;9.904;2023-05-29T09:56:43;24.30;1.00
13642;DHT22;6894;52.196;9.904;2023-05-29T09:59:11;23.50;1.00
13642;DHT22;6894;52.196;9.904;2023-05-29T10:01:40;23.50;1.00
13642;DHT22;6894;52.196;9.904;2023-05-29T10:04:07;24.00;1.00
13642;DHT22;6894;52.196;9.904;2023-05-29T10:06:36;23.80;1.00
13642;DHT22;6894;52.196;9.904;2023-05-29T10:09:03;24.50;1.00
13642;DHT22;6894;52.196;9.904;2023-05-29T10:11:34;24.30;1.00
13642;DHT22;6894;52.196;9.904;2023-05-29T10:14:04;24.20;1.00
13642;DHT22;6894;52.196;9.904;2023-05-29T10:16:34;24.40;1.00
13642;DHT22;6894;52.196;9.904;2023-05-29T10:19:06;24.20;99.90
13642;DHT22;6894;52.196;9.904;2023-05-29T10:21:37;23.60;1.00
13642;DHT22;6894;52.196;9.904;2023-05-29T10:24:07;23.40;1.00
13642;DHT22;6894;52.196;9.904;2023-05-29T10:26:38;23.10;1.00
13642;DHT22;6894;52.196;9.904;2023-05-29T10:29:11;23.40;1.00
13642;DHT22;6894;52.196;9.904;2023-05-29T10:31:51;23.50;1.00
13642;DHT22;6894;52.196;9.904;2023-05-29T10:34:29;23.50;1.00
13642;DHT22;6894;52.196;9.904;2023-05-29T10:37:04;23.30;1.00
13642;DHT22;6894;52.196;9.904;2023-05-29T10:39:32;23.80;1.00
13642;DHT22;6894;52.196;9.904;2023-05-29T10:42:00;23.90;1.00
13642;DHT22;6894;52.196;9.904;2023-05-29T10:44:40;23.70;99.90
13642;DHT22;6894;52.196;9.904;2023-05-29T10:47:07;23.80;1.00
13642;DHT22;6894;52.196;9.904;2023-05-29T10:49:37;24.40;99.90
13642;DHT22;6894;52.196;9.904;2023-05-29T10:52:05;25.30;99.90
13642;DHT22;6894;52.196;9.904;2023-05-29T10:54:41;25.30;99.90
13642;DHT22;6894;52.196;9.904;2023-05-29T10:57:16;25.20;99.90
13642;DHT22;6894;52.196;9.904;2023-05-29T10:59:46;25.20;99.90
13642;DHT22;6894;52.196;9.904;2023-05-29T11:02:17;24.90;99.90
13642;DHT22;6894;52.196;9.904;2023-05-29T11:05:04;24.30;99.90
13642;DHT22;6894;52.196;9.904;2023-05-29T11:07:34;23.90;99.90
13642;DHT22;6894;52.196;9.904;2023-05-29T11:10:12;24.30;99.90
13642;DHT22;6894;52.196;9.904;2023-05-29T11:13:01;24.60;99.90
13642;DHT22;6894;52.196;9.904;2023-05-29T11:15:32;25.20;99.90
13642;DHT22;6894;52.196;9.904;2023-05-29T11:18:05;25.80;99.90
13642;DHT22;6894;52.196;9.904;2023-05-29T11:20:37;26.40;99.90
13642;DHT22;6894;52.196;9.904;2023-05-29T11:23:08;25.90;99.90
13642;DHT22;6894;52.196;9.904;2023-05-29T11:25:43;25.40;99.90
13642;DHT22;6894;52.196;9.904;2023-05-29T11:28:11;25.20;99.90
13642;DHT22;6894;52.196;9.904;2023-05-29T11:30:46;24.90;99.90
13642;DHT22;6894;52.196;9.904;2023-05-29T11:33:20;25.20;99.90
13642;DHT22;6894;52.196;9.904;2023-05-29T11:35:50;25.70;99.90
13642;DHT22;6894;52.196;9.904;2023-05-29T11:38:17;26.20;99.90
13642;DHT22;6894;52.196;9.904;2023-05-29T11:40:44;26.40;99.90
13642;DHT22;6894;52.196;9.904;2023-05-29T11:43:12;26.20;99.90
13642;DHT22;6894;52.196;9.904;2023-05-29T11:45:39;26.10;99.90
13642;DHT22;6894;52.196;9.904;2023-05-29T11:48:07;26.50;99.90
13642;DHT22;6894;52.196;9.904;2023-05-29T11:50:34;26.40;99.90
13642;DHT22;6894;52.196;9.904;2023-05-29T11:53:02;26.40;99.90
13642;DHT22;6894;52.196;9.904;2023-05-29T11:55:29;26.30;99.90
13642;DHT22;6894;52.196;9.904;2023-05-29T11:57:57;26.60;99.90
13642;DHT22;6894;52.196;9.904;2023-05-29T12:00:24;26.60;99.90
13642;DHT22;6894;52.196;9.904;2023-05-29T12:02:52;26.70;99.90
13642;DHT22;6894;52.196;9.904;2023-05-29T12:05:20;26.70;99.90
13642;DHT22;6894;52.196;9.904;2023-05-29T12:07:51;27.00;99.90
13642;DHT22;6894;52.196;9.904;2023-05-29T12:10:20;27.20;99.90
13642;DHT22;6894;52.196;9.904;2023-05-29T12:12:47;27.40;99.90
13642;DHT22;6894;52.196;9.904;2023-05-29T12:15:15;27.70;99.90
13642;DHT22;6894;52.196;9.904;2023-05-29T12:17:43;26.80;99.90
13642;DHT22;6894;52.196;9.904;2023-05-29T12:20:11;26.20;99.90
13642;DHT22;6894;52.196;9.904;2023-05-29T12:22:40;25.60;99.90
13642;DHT22;6894;52.196;9.904;2023-05-29T12:25:10;26.00;99.90
13642;DHT22;6894;52.196;9.904;2023-05-29T12:27:37;25.80;99.90
13642;DHT22;6894;52.196;9.904;2023-05-29T12:30:09;25.60;99.90
13642;DHT22;6894;52.196;9.904;2023-05-29T12:32:37;25.70;99.90
13642;DHT22;6894;52.196;9.904;2023-05-29T12:35:12;25.80;99.90
13642;DHT22;6894;52.196;9.904;2023-05-29T12:37:47;25.80;99.90
13642;DHT22;6894;52.196;9.904;2023-05-29T12:40:19;25.70;99.90
13642;DHT22;6894;52.196;9.904;2023-05-29T12:42:46;25.50;99.90
13642;DHT22;6894;52.196;9.904;2023-05-29T12:45:14;25.50;99.90
13642;DHT22;6894;52.196;9.904;2023-05-29T12:47:51;25.60;99.90
13642;DHT22;6894;52.196;9.904;2023-05-29T12:50:23;25.70;99.90
13642;DHT22;6894;52.196;9.904;2023-05-29T12:52:59;25.80;99.90
13642;DHT22;6894;52.196;9.904;2023-05-29T12:55:27;26.10;99.90
13642;DHT22;6894;52.196;9.904;2023-05-29T12:57:54;26.40;99.90
13642;DHT22;6894;52.196;9.904;2023-05-29T13:00:22;26.50;99.90
13642;DHT22;6894;52.196;9.904;2023-05-29T13:02:49;26.50;99.90
13642;DHT22;6894;52.196;9.904;2023-05-29T13:05:16;25.90;99.90
13642;DHT22;6894;52.196;9.904;2023-05-29T13:07:45;25.60;99.90
13642;DHT22;6894;52.196;9.904;2023-05-29T13:10:14;25.70;99.90
13642;DHT22;6894;52.196;9.904;2023-05-29T13:12:41;25.70;99.90
13642;DHT22;6894;52.196;9.904;2023-05-29T13:15:09;25.90;99.90
13642;DHT22;6894;52.196;9.904;2023-05-29T13:17:36;25.70;99.90
13642;DHT22;6894;52.196;9.904;2023-05-29T13:20:07;25.80;99.90
13642;DHT22;6894;52.196;9.904;2023-05-29T13:22:35;26.10;99.90
13642;DHT22;6894;52.196;9.904;2023-05-29T13:25:02;26.60;99.90
13642;DHT22;6894;52.196;9.904;2023-05-29T13:27:33;27.00;99.90
13642;DHT22;6894;52.196;9.904;2023-05-29T13:30:01;27.00;99.90
13642;DHT22;6894;52.196;9.904;2023-05-29T13:32:28;26.90;99.90
13642;DHT22;6894;52.196;9.904;2023-05-29T13:34:55;27.00;99.90
13642;DHT22;6894;52.196;9.904;2023-05-29T13:37:22;26.40;99.90
13642;DHT22;6894;52.196;9.904;2023-05-29T13:39:49;26.10;99.90
13642;DHT22;6894;52.196;9.904;2023-05-29T13:42:17;25.80;99.90
13642;DHT22;6894;52.196;9.904;2023-05-29T13:44:45;25.60;99.90
13642;DHT22;6894;52.196;9.904;2023-05-29T13:47:12;25.80;99.90
13642;DHT22;6894;52.196;9.904;2023-05-29T13:49:39;25.80;99.90
13642;DHT22;6894;52.196;9.904;2023-05-29T13:52:06;25.40;99.90
13642;DHT22;6894;52.196;9.904;2023-05-29T13:54:33;25.40;99.90
13642;DHT22;6894;52.196;9.904;2023-05-29T13:57:01;25.40;99.90
13642;DHT22;6894;52.196;9.904;2023-05-29T13:59:28;25.20;99.90
13642;DHT22;6894;52.196;9.904;2023-05-29T14:01:56;24.70;99.90
13642;DHT22;6894;52.196;9.904;2023-05-29T14:04:23;24.80;99.90
13642;DHT22;6894;52.196;9.904;2023-05-29T14:06:50;24.80;99.90
13642;DHT22;6894;52.196;9.904;2023-05-29T14:09:17;25.10;99.90
13642;DHT22;6894;52.196;9.904;2023-05-29T14:11:51;24.90;99.90
13642;DHT22;6894;52.196;9.904;2023-05-29T14:14:18;25.00;99.90
13642;DHT22;6894;52.196;9.904;2023-05-29T14:16:45;25.30;99.90
13642;DHT22;6894;52.196;9.904;2023-05-29T14:19:13;25.30;99.90
13642;DHT22;6894;52.196;9.904;2023-05-29T14:21:40;25.40;99.90
13642;DHT22;6894;52.196;9.904;2023-05-29T14:24:07;24.70;99.90
13642;DHT22;6894;52.196;9.904;2023-05-29T14:26:33;24.50;99.90
13642;DHT22;6894;52.196;9.904;2023-05-29T14:29:00;24.40;99.90
13642;DHT22;6894;52.196;9.904;2023-05-29T14:31:27;24.10;99.90
13642;DHT22;6894;52.196;9.904;2023-05-29T14:33:54;24.30;99.90
13642;DHT22;6894;52.196;9.904;2023-05-29T14:36:22;24.30;99.90
13642;DHT22;6894;52.196;9.904;2023-05-29T14:38:49;24.50;99.90
13642;DHT22;6894;52.196;9.904;2023-05-29T14:41:15;24.40;99.90
13642;DHT22;6894;52.196;9.904;2023-05-29T14:43:43;24.30;99.90
13642;DHT22;6894;52.196;9.904;2023-05-29T14:46:10;24.00;99.90
13642;DHT22;6894;52.196;9.904;2023-05-29T14:48:37;23.70;99.90
13642;DHT22;6894;52.196;9.904;2023-05-29T14:51:04;23.90;99.90
13642;DHT22;6894;52.196;9.904;2023-05-29T14:53:32;24.20;99.90
13642;DHT22;6894;52.196;9.904;2023-05-29T14:55:59;24.50;99.90
13642;DHT22;6894;52.196;9.904;2023-05-29T14:58:25;24.90;99.90
13642;DHT22;6894;52.196;9.904;2023-05-29T15:00:52;25.20;99.90
13642;DHT22;6894;52.196;9.904;2023-05-29T15:03:19;25.10;99.90
13642;DHT22;6894;52.196;9.904;2023-05-29T15:05:46;25.10;99.90
13642;DHT22;6894;52.196;9.904;2023-05-29T15:08:13;25.20;99.90
13642;DHT22;6894;52.196;9.904;2023-05-29T15:10:41;24.80;99.90
13642;DHT22;6894;52.196;9.904;2023-05-29T15:13:08;24.90;99.90
13642;DHT22;6894;52.196;9.904;2023-05-29T15:15:35;25.00;99.90
13642;DHT22;6894;52.196;9.904;2023-05-29T15:18:02;24.80;99.90
13642;DHT22;6894;52.196;9.904;2023-05-29T15:20:28;24.70;99.90
13642;DHT22;6894;52.196;9.904;2023-05-29T15:22:55;24.40;99.90
13642;DHT22;6894;52.196;9.904;2023-05-29T15:25:22;24.30;99.90
13642;DHT22;6894;52.196;9.904;2023-05-29T15:27:50;24.20;99.90
13642;DHT22;6894;52.196;9.904;2023-05-29T15:30:18;24.30;99.90
13642;DHT22;6894;52.196;9.904;2023-05-29T15:32:46;24.50;99.90
13642;DHT22;6894;52.196;9.904;2023-05-29T15:35:14;24.60;99.90
13642;DHT22;6894;52.196;9.904;2023-05-29T15:37:42;24.50;99.90
13642;DHT22;6894;52.196;9.904;2023-05-29T15:40:10;24.70;99.90
13642;DHT22;6894;52.196;9.904;2023-05-29T15:42:37;24.80;99.90
13642;DHT22;6894;52.196;9.904;2023-05-29T15:45:06;24.40;99.90
13642;DHT22;6894;52.196;9.904;2023-05-29T15:47:33;24.20;99.90
13642;DHT22;6894;52.196;9.904;2023-05-29T15:50:00;24.30;99.90
13642;DHT22;6894;52.196;9.904;2023-05-29T15:52:27;24.00;99.90
13642;DHT22;6894;52.196;9.904;2023-05-29T15:54:54;23.90;99.90
13642;DHT22;6894;52.196;9.904;2023-05-29T15:57:21;23.90;99.90
13642;DHT22;6894;52.196;9.904;2023-05-29T15:59:48;23.60;99.90
13642;DHT22;6894;52.196;9.904;2023-05-29T16:02:16;23.60;99.90
13642;DHT22;6894;52.196;9.904;2023-05-29T16:04:42;23.70;99.90